createdAt,value
2023-05-29T00:00:41.497Z,17.00
2023-05-29T00:03:25.230Z,16.40
2023-05-29T00:05:53.928Z,16.70
2023-05-29T00:08:22.171Z,18.60
2023-05-29T00:10:50.062Z,17.00
2023-05-29T00:13:17.930Z,20.20
2023-05-29T00:15:45.858Z,17.60
2023-05-29T00:18:13.773Z,24.30
2023-05-29T00:20:41.593Z,15.90
2023-05-29T00:23:11.052Z,21.00
2023-05-29T00:25:39.020Z,20.30
2023-05-29T00:28:08.299Z,20.40
2023-05-29T00:30:36.446Z,16.60
2023-05-29T00:33:04.461Z,27.20
2023-05-29T00:35:32.548Z,21.80
2023-05-29T00:38:00.511Z,19.60
2023-05-29T00:40:28.449Z,18.10
2023-05-29T00:42:56.344Z,17.30
2023-05-29T00:45:24.200Z,22.10
2023-05-29T00:47:52.082Z,19.60
2023-05-29T00:50:22.940Z,17.90
2023-05-29T00:52:51.317Z,20.20
2023-05-29T00:55:19.317Z,18.30
2023-05-29T00:57:48.691Z,23.10
2023-05-29T01:00:17.100Z,19.60
2023-05-29T01:02:46.118Z,15.60
2023-05-29T01:05:16.143Z,13.80
2023-05-29T01:07:44.116Z,18.60
2023-05-29T01:10:12.653Z,19.40
2023-05-29T01:12:59.514Z,17.10
2023-05-29T01:15:39.167Z,19.00
2023-05-29T01:18:24.143Z,18.50
2023-05-29T01:20:54.611Z,19.60
2023-05-29T01:23:49.646Z,21.30
2023-05-29T01:26:57.656Z,26.90
2023-05-29T01:29:32.327Z,27.60
2023-05-29T01:32:00.623Z,28.90
2023-05-29T01:34:29.561Z,26.50
2023-05-29T01:36:57.877Z,28.40
2023-05-29T01:39:26.497Z,24.70
2023-05-29T01:41:55.796Z,24.20
2023-05-29T01:44:24.331Z,21.80
2023-05-29T01:46:52.468Z,25.30
2023-05-29T01:49:20.775Z,23.30
2023-05-29T01:51:49.062Z,27.30
2023-05-29T01:54:17.017Z,27.10
2023-05-29T01:56:47.180Z,20.70
2023-05-29T01:59:15.116Z,22.10
2023-05-29T02:01:43.011Z,26.60
2023-05-29T02:04:10.983Z,24.60
2023-05-29T02:06:39.463Z,23.20
2023-05-29T02:09:07.961Z,29.40
2023-05-29T02:11:35.796Z,31.60
2023-05-29T02:14:04.800Z,26.40
2023-05-29T02:16:35.182Z,32.60
2023-05-29T02:19:03.445Z,23.30
2023-05-29T02:21:32.652Z,22.30
2023-05-29T02:24:00.709Z,30.10
2023-05-29T02:26:28.664Z,24.30
2023-05-29T02:28:57.108Z,25.10
2023-05-29T02:31:25.014Z,25.50
2023-05-29T02:33:52.987Z,25.80
2023-05-29T02:36:21.512Z,27.50
2023-05-29T02:38:49.411Z,23.70
2023-05-29T02:41:17.374Z,21.30
2023-05-29T02:43:45.362Z,28.90
2023-05-29T02:46:13.244Z,25.50
2023-05-29T02:48:41.117Z,24.90
2023-05-29T02:51:08.991Z,23.90
2023-05-29T02:53:36.835Z,24.70
2023-05-29T02:56:05.227Z,31.30
2023-05-29T02:58:34.271Z,27.20
2023-05-29T03:01:06.130Z,29.90
2023-05-29T03:03:34.457Z,29.00
2023-05-29T03:06:03.161Z,23.50
2023-05-29T03:08:32.923Z,30.80
2023-05-29T03:11:00.862Z,29.00
2023-05-29T03:13:29.032Z,21.30
2023-05-29T03:15:58.255Z,24.60
2023-05-29T03:18:26.343Z,21.60
2023-05-29T03:20:55.457Z,26.00
2023-05-29T03:23:25.994Z,21.10
2023-05-29T03:25:55.890Z,20.70
2023-05-29T03:28:23.828Z,26.70
2023-05-29T03:30:53.007Z,28.50
2023-05-29T03:33:21.058Z,21.00
2023-05-29T03:35:48.959Z,19.90
2023-05-29T03:38:16.787Z,21.90
2023-05-29T03:40:44.629Z,25.30
2023-05-29T03:43:12.646Z,25.50
2023-05-29T03:45:40.511Z,26.40
2023-05-29T03:48:08.345Z,24.60
2023-05-29T03:50:36.268Z,22.50
2023-05-29T03:53:04.132Z,23.10
2023-05-29T03:55:32.890Z,22.70
2023-05-29T03:58:00.958Z,21.90
2023-05-29T04:00:28.976Z,19.70
2023-05-29T04:02:57.716Z,20.40
2023-05-29T04:05:26.368Z,20.40
2023-05-29T04:08:01.098Z,23.10
2023-05-29T04:10:36.069Z,22.50
2023-05-29T04:13:04.034Z,27.50
2023-05-29T04:15:34.241Z,19.50
2023-05-29T04:18:02.113Z,23.00
2023-05-29T04:20:30.658Z,14.90
2023-05-29T04:22:58.559Z,20.10
2023-05-29T04:25:26.346Z,18.40
2023-05-29T04:27:54.170Z,23.40
2023-05-29T04:30:21.973Z,12.10
2023-05-29T04:32:50.145Z,17.00
2023-05-29T04:35:18.032Z,14.90
2023-05-29T04:37:47.022Z,8.90
2023-05-29T04:40:18.433Z,11.40
2023-05-29T04:42:46.660Z,13.10
2023-05-29T04:45:14.818Z,11.60
2023-05-29T04:47:45.890Z,15.20
2023-05-29T04:50:14.549Z,18.20
2023-05-29T04:52:43.324Z,16.30
2023-05-29T04:55:11.872Z,17.70
2023-05-29T04:57:39.835Z,13.30
2023-05-29T05:00:14.920Z,19.10
2023-05-29T05:02:46.332Z,17.50
2023-05-29T05:05:14.504Z,10.20
2023-05-29T05:07:42.378Z,19.90
2023-05-29T05:10:10.898Z,12.90
2023-05-29T05:12:39.182Z,22.70
2023-05-29T05:15:07.942Z,24.40
2023-05-29T05:17:36.009Z,13.50
2023-05-29T05:20:07.214Z,10.20
2023-05-29T05:22:35.491Z,13.00
2023-05-29T05:25:05.108Z,11.80
2023-05-29T05:27:34.398Z,20.30
2023-05-29T05:30:04.685Z,19.20
2023-05-29T05:32:32.569Z,18.60
2023-05-29T05:35:00.418Z,18.90
2023-05-29T05:37:28.381Z,27.30
2023-05-29T05:40:00.061Z,16.00
2023-05-29T05:42:27.944Z,15.30
2023-05-29T05:44:55.662Z,18.10
2023-05-29T05:47:23.613Z,17.60
2023-05-29T05:49:52.627Z,13.00
2023-05-29T05:52:20.428Z,12.70
2023-05-29T05:54:48.250Z,13.90
2023-05-29T05:57:16.526Z,9.90
2023-05-29T05:59:44.569Z,13.00
2023-05-29T06:02:12.557Z,10.60
2023-05-29T06:04:41.311Z,20.70
2023-05-29T06:07:09.641Z,13.10
2023-05-29T06:09:38.649Z,12.60
2023-05-29T06:12:08.781Z,16.40
2023-05-29T06:14:36.819Z,12.10
2023-05-29T06:17:04.814Z,14.90
2023-05-29T06:19:32.621Z,9.80
2023-05-29T06:22:00.571Z,16.10
2023-05-29T06:24:28.434Z,44.50
2023-05-29T06:26:56.285Z,14.00
2023-05-29T06:29:24.063Z,12.90
2023-05-29T06:31:52.235Z,12.30
2023-05-29T06:34:20.366Z,16.20
2023-05-29T06:36:48.211Z,11.60
2023-05-29T06:39:16.429Z,13.80
2023-05-29T06:41:44.217Z,18.30
2023-05-29T06:44:12.114Z,18.10
2023-05-29T06:46:40.068Z,13.00
2023-05-29T06:49:07.993Z,11.80
2023-05-29T06:51:36.579Z,11.50
2023-05-29T06:54:04.442Z,11.40
2023-05-29T06:56:32.405Z,9.60
2023-05-29T06:59:00.270Z,8.30
2023-05-29T07:01:28.120Z,9.60
2023-05-29T07:03:56.316Z,10.00
2023-05-29T07:06:24.240Z,11.90
2023-05-29T07:08:52.037Z,13.00
2023-05-29T07:11:19.943Z,9.40
2023-05-29T07:13:47.899Z,9.70
2023-05-29T07:16:24.446Z,13.70
2023-05-29T07:18:53.540Z,14.70
2023-05-29T07:21:21.530Z,14.40
2023-05-29T07:23:49.608Z,7.30
2023-05-29T07:26:17.584Z,11.00
2023-05-29T07:28:45.668Z,12.10
2023-05-29T07:31:13.537Z,10.90
2023-05-29T07:33:42.612Z,10.30
2023-05-29T07:36:10.461Z,12.10
2023-05-29T07:38:38.318Z,10.90
2023-05-29T07:41:06.900Z,11.30
2023-05-29T07:43:34.809Z,11.90
2023-05-29T07:46:02.803Z,11.70
2023-05-29T07:48:30.664Z,18.80
2023-05-29T07:50:59.068Z,11.20
2023-05-29T07:53:26.964Z,13.00
2023-05-29T07:55:54.993Z,19.40
2023-05-29T07:58:22.888Z,6.60
2023-05-29T08:00:50.721Z,7.20
2023-05-29T08:03:18.756Z,7.50
2023-05-29T08:05:47.046Z,11.30
2023-05-29T08:08:15.374Z,11.20
2023-05-29T08:10:43.403Z,11.10
2023-05-29T08:13:11.408Z,11.40
2023-05-29T08:15:39.210Z,9.90
2023-05-29T08:18:08.056Z,11.50
2023-05-29T08:20:36.281Z,10.20
2023-05-29T08:23:04.267Z,6.00
2023-05-29T08:25:32.162Z,10.10
2023-05-29T08:28:00.177Z,11.50
2023-05-29T08:30:28.153Z,7.30
2023-05-29T08:32:56.384Z,8.40
2023-05-29T08:35:24.410Z,9.60
2023-05-29T08:37:52.465Z,9.10
2023-05-29T08:40:20.893Z,7.10
2023-05-29T08:42:56.187Z,22.00
2023-05-29T08:45:26.813Z,10.10
2023-05-29T08:47:55.280Z,11.90
2023-05-29T08:50:24.561Z,7.30
2023-05-29T08:52:52.499Z,8.30
2023-05-29T08:55:20.584Z,11.50
2023-05-29T08:57:48.485Z,11.10
2023-05-29T09:00:17.620Z,12.30
2023-05-29T09:02:45.847Z,15.20
2023-05-29T09:05:14.526Z,10.30
2023-05-29T09:07:42.537Z,17.50
2023-05-29T09:10:11.098Z,8.50
2023-05-29T09:12:39.506Z,8.30
2023-05-29T09:15:28.446Z,13.90
2023-05-29T09:17:58.508Z,10.40
2023-05-29T09:20:27.305Z,9.50
2023-05-29T09:23:01.764Z,8.10
2023-05-29T09:25:32.980Z,7.50
2023-05-29T09:28:06.829Z,7.40
2023-05-29T09:30:48.264Z,9.90
2023-05-29T09:33:20.164Z,8.70
2023-05-29T09:35:49.870Z,7.90
2023-05-29T09:40:50.014Z,8.60
2023-05-29T09:43:21.025Z,8.10
2023-05-29T09:45:50.313Z,8.70
2023-05-29T09:48:22.618Z,9.40
2023-05-29T09:50:50.838Z,8.80
2023-05-29T09:53:25.365Z,6.00
2023-05-29T09:56:00.610Z,7.30
2023-05-29T09:58:29.687Z,8.40
2023-05-29T10:00:59.314Z,5.20
2023-05-29T10:03:28.171Z,8.80
2023-05-29T10:05:58.507Z,10.30
2023-05-29T10:08:28.092Z,6.80
2023-05-29T10:11:10.318Z,8.30
2023-05-29T10:13:42.037Z,10.30
2023-05-29T10:16:14.191Z,7.80
2023-05-29T10:18:50.632Z,8.80
2023-05-29T10:21:18.955Z,7.30
2023-05-29T10:23:49.557Z,5.40
2023-05-29T10:26:28.134Z,6.50
2023-05-29T10:29:38.811Z,10.20
2023-05-29T10:32:23.570Z,11.00
2023-05-29T10:35:07.195Z,12.70
2023-05-29T10:37:59.125Z,6.90
2023-05-29T10:40:27.998Z,7.60
2023-05-29T10:42:59.598Z,7.90
2023-05-29T10:45:30.608Z,7.10
2023-05-29T10:48:13.396Z,7.00
2023-05-29T10:50:49.040Z,5.40
2023-05-29T10:53:19.751Z,6.70
2023-05-29T10:55:47.562Z,8.20
2023-05-29T10:58:26.740Z,4.90
2023-05-29T11:00:57.540Z,7.00
2023-05-29T11:03:32.972Z,6.60
2023-05-29T11:06:07.397Z,5.80
2023-05-29T11:08:37.204Z,10.60
2023-05-29T11:11:12.010Z,7.10
2023-05-29T11:13:53.163Z,7.10
2023-05-29T11:16:26.242Z,8.40
2023-05-29T11:18:54.461Z,9.00
2023-05-29T11:21:53.896Z,5.90
2023-05-29T11:24:30.500Z,6.10
2023-05-29T11:27:01.344Z,4.70
2023-05-29T11:29:30.112Z,9.80
2023-05-29T11:32:07.076Z,6.00
2023-05-29T11:34:35.371Z,7.40
2023-05-29T11:37:04.304Z,9.20
2023-05-29T11:39:32.760Z,6.60
2023-05-29T11:42:01.561Z,9.00
2023-05-29T11:44:29.737Z,10.00
2023-05-29T11:47:06.952Z,7.00
2023-05-29T11:49:38.567Z,15.20
2023-05-29T11:52:16.170Z,9.00
2023-05-29T11:54:50.041Z,15.10
2023-05-29T11:57:22.675Z,7.90
2023-05-29T11:59:53.985Z,5.30
2023-05-29T12:02:24.150Z,6.60
2023-05-29T12:05:06.023Z,8.90
2023-05-29T12:07:34.366Z,5.70
2023-05-29T12:10:18.770Z,8.90
2023-05-29T12:12:54.782Z,7.70
2023-05-29T12:15:23.663Z,9.40
2023-05-29T12:17:53.217Z,8.10
2023-05-29T12:20:24.876Z,7.60
2023-05-29T12:22:52.720Z,9.00
2023-05-29T12:25:21.699Z,10.00
2023-05-29T12:27:50.080Z,12.50
2023-05-29T12:30:31.511Z,8.50
2023-05-29T12:33:01.840Z,10.10
2023-05-29T12:35:30.936Z,8.00
2023-05-29T12:38:00.641Z,4.90
2023-05-29T12:40:30.249Z,5.50
2023-05-29T12:43:00.531Z,6.50
2023-05-29T12:45:33.814Z,7.90
2023-05-29T12:48:08.338Z,12.50
2023-05-29T12:50:40.626Z,9.30
2023-05-29T12:55:43.195Z,6.30
2023-05-29T12:58:16.633Z,6.40
2023-05-29T13:00:45.489Z,7.70
2023-05-29T13:03:14.043Z,9.50
2023-05-29T13:05:42.207Z,8.30
2023-05-29T13:08:10.250Z,10.10
2023-05-29T13:10:38.370Z,8.50
2023-05-29T13:13:06.320Z,8.40
2023-05-29T13:15:35.270Z,7.30
2023-05-29T13:18:03.799Z,7.40
2023-05-29T13:20:33.238Z,9.80
2023-05-29T13:23:01.308Z,6.80
2023-05-29T13:25:29.517Z,6.90
2023-05-29T13:27:57.581Z,7.50
2023-05-29T13:30:25.569Z,4.70
2023-05-29T13:32:55.193Z,6.10
2023-05-29T13:35:23.312Z,7.30
2023-05-29T13:37:51.433Z,7.50
2023-05-29T13:40:19.608Z,7.70
2023-05-29T13:42:47.452Z,6.80
2023-05-29T13:45:15.734Z,5.30
2023-05-29T13:47:43.834Z,6.10
2023-05-29T13:50:11.853Z,6.00
2023-05-29T13:52:39.991Z,6.20
2023-05-29T13:55:12.489Z,5.00
2023-05-29T13:57:41.190Z,7.60
2023-05-29T14:00:11.146Z,8.10
2023-05-29T14:02:39.057Z,5.10
2023-05-29T14:05:07.779Z,6.80
2023-05-29T14:07:35.811Z,5.40
2023-05-29T14:10:04.346Z,7.60
2023-05-29T14:12:32.398Z,8.30
2023-05-29T14:15:00.331Z,5.00
2023-05-29T14:17:29.039Z,5.80
2023-05-29T14:19:57.494Z,7.20
2023-05-29T14:22:25.872Z,9.30
2023-05-29T14:24:53.914Z,6.10
2023-05-29T14:27:23.619Z,5.40
2023-05-29T14:29:51.759Z,3.90
2023-05-29T14:32:19.794Z,9.10
2023-05-29T14:34:47.691Z,5.20
2023-05-29T14:37:15.777Z,11.00
2023-05-29T14:39:43.755Z,4.30
2023-05-29T14:42:14.982Z,5.00
2023-05-29T14:44:43.012Z,24.70
2023-05-29T14:47:11.704Z,5.70
2023-05-29T14:49:40.886Z,9.00
2023-05-29T14:52:09.016Z,9.00
2023-05-29T14:54:37.224Z,6.70
2023-05-29T14:57:05.480Z,4.00
2023-05-29T14:59:33.413Z,10.00
2023-05-29T15:02:01.819Z,7.90
2023-05-29T15:04:29.786Z,7.70
2023-05-29T15:07:05.957Z,6.50
2023-05-29T15:09:34.977Z,4.80
2023-05-29T15:12:04.168Z,5.70
2023-05-29T15:14:32.204Z,9.40
2023-05-29T15:17:01.374Z,14.70
2023-05-29T15:19:29.369Z,5.70
2023-05-29T15:21:58.317Z,5.60
2023-05-29T15:24:26.520Z,5.10
2023-05-29T15:26:54.654Z,5.90
2023-05-29T15:29:22.652Z,7.20
2023-05-29T15:31:50.502Z,3.30
2023-05-29T15:34:18.633Z,4.30
2023-05-29T15:36:46.491Z,7.70
2023-05-29T15:39:14.274Z,5.00
2023-05-29T15:41:42.335Z,4.70
2023-05-29T15:44:10.276Z,6.20
2023-05-29T15:46:38.186Z,7.80
2023-05-29T15:49:06.188Z,4.60
2023-05-29T15:51:34.288Z,5.40
2023-05-29T15:54:02.314Z,5.20
2023-05-29T15:56:30.335Z,6.60
2023-05-29T15:58:58.238Z,5.80
2023-05-29T16:01:26.413Z,16.10
2023-05-29T16:04:02.046Z,5.80
2023-05-29T16:06:33.964Z,8.90
2023-05-29T16:09:05.103Z,6.10
2023-05-29T16:11:33.140Z,4.80
2023-05-29T16:14:20.829Z,6.00
2023-05-29T16:17:01.910Z,7.50
2023-05-29T16:19:30.054Z,5.40
2023-05-29T16:21:58.004Z,5.10
2023-05-29T16:24:26.779Z,4.50
2023-05-29T16:26:54.666Z,5.60
2023-05-29T16:29:22.908Z,7.60
2023-05-29T16:31:50.969Z,9.80
2023-05-29T16:34:19.096Z,4.00
2023-05-29T16:36:47.016Z,8.50
2023-05-29T16:39:16.426Z,7.70
2023-05-29T16:41:45.998Z,4.20
2023-05-29T16:44:13.965Z,6.00
2023-05-29T16:46:42.198Z,6.60
2023-05-29T16:49:10.211Z,9.00
2023-05-29T16:51:38.190Z,7.10
2023-05-29T16:54:06.099Z,7.40
2023-05-29T16:56:37.365Z,4.80
2023-05-29T16:59:05.501Z,6.60
2023-05-29T17:01:35.596Z,4.60
2023-05-29T17:04:04.142Z,23.40
2023-05-29T17:06:32.148Z,4.50
2023-05-29T17:09:00.015Z,7.10
2023-05-29T17:11:28.142Z,6.40
2023-05-29T17:13:55.969Z,6.40
2023-05-29T17:16:24.274Z,5.90
2023-05-29T17:18:52.352Z,4.70
2023-05-29T17:21:20.376Z,7.60
2023-05-29T17:23:48.287Z,9.30
2023-05-29T17:26:16.470Z,8.80
2023-05-29T17:28:44.610Z,6.90
2023-05-29T17:31:14.345Z,5.70
2023-05-29T17:33:42.690Z,7.10
2023-05-29T17:36:12.248Z,9.60
2023-05-29T17:38:40.516Z,8.20
2023-05-29T17:41:08.457Z,6.40
2023-05-29T17:43:36.465Z,11.50
2023-05-29T17:46:04.458Z,7.30
2023-05-29T17:48:32.984Z,21.60
2023-05-29T17:51:01.014Z,7.10
2023-05-29T17:53:28.902Z,7.80
2023-05-29T17:55:57.073Z,4.30
2023-05-29T17:58:25.179Z,11.10
2023-05-29T18:00:53.111Z,6.70
2023-05-29T18:03:22.782Z,8.10
2023-05-29T18:05:50.871Z,5.00
2023-05-29T18:08:18.781Z,6.40
2023-05-29T18:10:46.750Z,9.50
2023-05-29T18:13:15.266Z,7.00
2023-05-29T18:15:43.340Z,6.10
2023-05-29T18:18:11.321Z,7.70
2023-05-29T18:20:39.505Z,7.60
2023-05-29T18:23:08.423Z,8.90
2023-05-29T18:25:36.945Z,11.50
2023-05-29T18:28:05.775Z,7.80
2023-05-29T18:30:36.966Z,7.40
2023-05-29T18:33:12.803Z,8.50
2023-05-29T18:35:41.140Z,7.60
2023-05-29T18:38:15.572Z,9.30
2023-05-29T18:40:45.934Z,5.80
2023-05-29T18:43:13.854Z,6.60
2023-05-29T18:45:41.761Z,11.80
2023-05-29T18:48:09.692Z,11.70
2023-05-29T18:50:39.038Z,8.40
2023-05-29T18:53:08.331Z,5.80
2023-05-29T18:55:36.388Z,10.60
2023-05-29T18:58:04.379Z,7.80
2023-05-29T19:00:34.052Z,6.60
2023-05-29T19:03:03.293Z,7.20
2023-05-29T19:05:31.959Z,9.70
2023-05-29T19:08:01.674Z,9.20
2023-05-29T19:10:29.594Z,10.50
2023-05-29T19:12:57.571Z,7.80
2023-05-29T19:15:28.054Z,8.80
2023-05-29T19:17:55.949Z,7.90
2023-05-29T19:20:24.039Z,11.00
2023-05-29T19:22:53.548Z,9.00
2023-05-29T19:25:21.880Z,9.00
2023-05-29T19:27:51.783Z,15.10
2023-05-29T19:30:20.204Z,14.30
2023-05-29T19:32:48.410Z,13.60
2023-05-29T19:35:16.436Z,11.80
2023-05-29T19:37:44.356Z,17.10
2023-05-29T19:40:12.361Z,16.40
2023-05-29T19:42:41.002Z,11.70
2023-05-29T19:45:09.597Z,14.60
2023-05-29T19:47:37.827Z,11.80
2023-05-29T19:50:08.248Z,10.60
2023-05-29T19:52:36.193Z,9.60
2023-05-29T19:55:06.063Z,10.30
2023-05-29T19:57:34.771Z,8.70
2023-05-29T20:00:05.682Z,33.50
2023-05-29T20:02:37.645Z,15.50
2023-05-29T20:05:06.188Z,18.20
2023-05-29T20:07:34.275Z,10.70
2023-05-29T20:12:33.998Z,12.60
2023-05-29T20:15:01.845Z,12.20
2023-05-29T20:17:29.767Z,15.20
2023-05-29T20:19:58.298Z,10.80
2023-05-29T20:22:26.281Z,13.40
2023-05-29T20:24:54.612Z,11.60
2023-05-29T20:27:22.909Z,13.00
2023-05-29T20:29:51.875Z,8.40
2023-05-29T20:32:19.946Z,7.40
2023-05-29T20:34:47.942Z,6.60
2023-05-29T20:37:17.598Z,8.30
2023-05-29T20:39:45.532Z,11.60
2023-05-29T20:42:15.744Z,10.00
2023-05-29T20:44:44.146Z,9.10
2023-05-29T20:47:12.174Z,12.40
2023-05-29T20:49:40.129Z,12.70
2023-05-29T20:52:08.592Z,7.60
2023-05-29T20:54:36.383Z,5.80
2023-05-29T20:57:04.422Z,8.60
2023-05-29T20:59:32.474Z,17.50
2023-05-29T21:02:00.388Z,9.10
2023-05-29T21:04:28.354Z,11.50
2023-05-29T21:06:56.225Z,10.20
2023-05-29T21:09:24.315Z,9.10
2023-05-29T21:11:52.284Z,10.30
2023-05-29T21:14:20.146Z,10.10
2023-05-29T21:16:48.180Z,10.10
2023-05-29T21:19:16.702Z,7.70
2023-05-29T21:21:44.509Z,11.00
2023-05-29T21:24:13.860Z,8.50
2023-05-29T21:26:41.865Z,10.50
2023-05-29T21:29:10.155Z,7.20
2023-05-29T21:31:40.591Z,7.70
2023-05-29T21:34:09.500Z,13.30
2023-05-29T21:36:38.914Z,7.90
2023-05-29T21:39:08.471Z,6.70
2023-05-29T21:41:37.135Z,6.90
2023-05-29T21:44:08.822Z,11.60
2023-05-29T21:46:36.989Z,10.90
2023-05-29T21:49:05.451Z,11.00
2023-05-29T21:51:36.003Z,9.70
2023-05-29T21:54:04.060Z,9.50
2023-05-29T21:56:32.081Z,6.90
2023-05-29T21:58:59.978Z,9.90
2023-05-29T22:01:28.564Z,8.20
2023-05-29T22:03:56.725Z,8.80
2023-05-29T22:06:24.835Z,10.90
2023-05-29T22:08:53.033Z,7.00
2023-05-29T22:11:21.124Z,7.80
2023-05-29T22:13:49.382Z,10.50
2023-05-29T22:16:18.428Z,11.20
2023-05-29T22:18:57.511Z,10.00
2023-05-29T22:21:33.534Z,9.40
2023-05-29T22:24:03.302Z,8.50
2023-05-29T22:26:32.373Z,8.00
2023-05-29T22:29:01.292Z,7.60
2023-05-29T22:31:29.584Z,5.50
2023-05-29T22:33:57.573Z,7.00
2023-05-29T22:36:25.612Z,9.10
2023-05-29T22:38:54.113Z,6.90
2023-05-29T22:41:23.050Z,7.70
2023-05-29T22:43:51.864Z,8.20
2023-05-29T22:46:20.108Z,9.40
2023-05-29T22:48:48.187Z,6.80
2023-05-29T22:51:16.589Z,7.30
2023-05-29T22:53:48.225Z,6.50
2023-05-29T22:56:18.055Z,5.50
2023-05-29T22:58:45.947Z,10.40
2023-05-29T23:01:14.325Z,10.80
2023-05-29T23:03:42.307Z,8.10
2023-05-29T23:06:12.269Z,6.80
2023-05-29T23:08:41.666Z,7.90
2023-05-29T23:11:09.588Z,6.10
2023-05-29T23:13:37.491Z,8.70
2023-05-29T23:16:06.924Z,8.10
2023-05-29T23:18:34.857Z,13.60
2023-05-29T23:21:02.781Z,10.40
2023-05-29T23:23:30.813Z,7.90
2023-05-29T23:26:00.264Z,6.80
2023-05-29T23:28:28.137Z,9.90
2023-05-29T23:30:56.227Z,9.40
2023-05-29T23:33:24.146Z,8.00
2023-05-29T23:35:51.904Z,7.20
2023-05-29T23:38:19.686Z,7.90
2023-05-29T23:40:47.534Z,8.50
2023-05-29T23:43:15.493Z,10.60
2023-05-29T23:45:43.341Z,8.60
2023-05-29T23:48:11.234Z,8.40
2023-05-29T23:50:40.927Z,10.90
2023-05-29T23:53:08.711Z,13.30
2023-05-29T23:55:36.509Z,8.10
2023-05-29T23:58:05.581Z,11.30
